Time;durP1;ratioP1;P1;durP2;ratioP2;P2;SDS_P1;SDS_P2;PMS_P1;PMS_P2;Temp;Humidity;BMP_temperature;BMP_pressure;BME280_temperature;BME280_humidity;BME280_pressure;Samples;Min_cycle;Max_cycle;Signal;HPM_P1;HPM_P2
2021/12/14 00:00:24;;;;;;;5.50;4.47;;;10.50;99.90;;;;;;2064455;28;20018;-70
2021/12/14 00:01:47;;;;;;;7.68;4.20;;;10.50;99.90;;;;;;2069478;28;20055;-71
2021/12/14 00:02:49;;;;;;;5.80;4.32;;;10.50;99.90;;;;;;2068903;28;20038;-70
2021/12/14 00:03:54;;;;;;;4.93;4.43;;;10.50;99.90;;;;;;2071466;28;20022;-70
2021/12/14 00:05:01;;;;;;;5.35;4.40;;;10.50;99.90;;;;;;2072143;28;20030;-70
2021/12/14 00:06:03;;;;;;;5.03;4.53;;;10.50;99.90;;;;;;2072106;28;20056;-70
2021/12/14 00:07:08;;;;;;;4.68;4.20;;;10.50;99.90;;;;;;2071743;28;20374;-70
2021/12/14 00:08:12;;;;;;;5.22;4.03;;;10.50;99.90;;;;;;2071982;28;20030;-70
2021/12/14 00:09:23;;;;;;;4.43;3.92;;;10.50;99.90;;;;;;2072073;28;20029;-70
2021/12/14 00:13:00;;;;;;;5.75;4.05;;;10.50;99.90;;;;;;2071551;28;20036;-70
2021/12/14 00:14:26;;;;;;;5.05;4.47;;;10.50;99.90;;;;;;2071412;28;20461;-70
2021/12/14 00:15:28;;;;;;;4.80;4.05;;;10.50;99.90;;;;;;2071770;28;20030;-70
2021/12/14 00:16:28;;;;;;;4.32;3.80;;;10.50;99.90;;;;;;2070992;28;20079;-71
2021/12/14 00:17:35;;;;;;;6.88;4.32;;;10.50;99.90;;;;;;2072155;28;20088;-70
2021/12/14 00:18:36;;;;;;;4.22;3.88;;;10.50;99.90;;;;;;2071800;28;20101;-70
2021/12/14 00:19:37;;;;;;;5.22;4.40;;;10.50;99.90;;;;;;2072173;28;20030;-70
2021/12/14 00:20:46;;;;;;;5.80;4.30;;;10.50;99.90;;;;;;2071689;28;20026;-70
2021/12/14 00:21:51;;;;;;;4.43;4.03;;;10.50;99.90;;;;;;2072115;28;20481;-70
2021/12/14 00:24:06;;;;;;;4.50;4.10;;;10.50;99.90;;;;;;2072205;28;20029;-70
2021/12/14 00:25:07;;;;;;;4.63;4.00;;;10.50;99.90;;;;;;2072067;28;20022;-70
2021/12/14 00:26:09;;;;;;;5.28;3.95;;;10.50;99.90;;;;;;2071358;28;20049;-70
2021/12/14 00:27:12;;;;;;;5.85;3.72;;;10.50;99.90;;;;;;2071745;28;20038;-70
2021/12/14 00:28:24;;;;;;;4.43;4.03;;;10.50;99.90;;;;;;2071989;28;20041;-70
2021/12/14 00:29:31;;;;;;;5.00;4.50;;;10.50;99.90;;;;;;2071793;28;20061;-70
2021/12/14 00:30:33;;;;;;;5.03;3.88;;;10.50;99.90;;;;;;2071949;28;20112;-70
2021/12/14 00:31:36;;;;;;;5.05;3.80;;;10.50;99.90;;;;;;2071585;28;20536;-70
2021/12/14 00:32:38;;;;;;;6.85;4.40;;;10.50;99.90;;;;;;2071387;28;20037;-70
2021/12/14 00:33:39;;;;;;;4.60;4.03;;;10.50;99.90;;;;;;2071465;28;20030;-70
2021/12/14 00:34:43;;;;;;;4.68;3.80;;;10.50;99.90;;;;;;2071884;28;20108;-70
2021/12/14 00:35:45;;;;;;;5.07;4.00;;;10.50;99.90;;;;;;2071676;28;20014;-70
2021/12/14 00:36:46;;;;;;;6.40;4.65;;;10.50;99.90;;;;;;2071078;28;20028;-70
2021/12/14 00:37:51;;;;;;;4.47;4.07;;;10.50;99.90;;;;;;2071772;28;20037;-70
2021/12/14 00:38:56;;;;;;;5.13;3.85;;;10.50;99.90;;;;;;2071961;28;20113;-70
2021/12/14 00:40:00;;;;;;;5.15;3.90;;;10.50;99.90;;;;;;2071882;28;20037;-70
2021/12/14 00:41:09;;;;;;;4.30;3.90;;;10.50;99.90;;;;;;2071738;28;20026;-70
2021/12/14 00:42:10;;;;;;;4.35;3.92;;;10.50;99.90;;;;;;2071745;28;20030;-70
2021/12/14 00:43:11;;;;;;;5.70;4.32;;;10.50;99.90;;;;;;2071873;28;20026;-70
2021/12/14 00:44:12;;;;;;;4.53;3.90;;;10.50;99.90;;;;;;2071499;28;20482;-70
2021/12/14 00:45:14;;;;;;;5.50;4.13;;;10.50;99.90;;;;;;2071463;28;20131;-70
2021/12/14 00:46:17;;;;;;;4.53;3.97;;;10.50;99.90;;;;;;2072625;28;20017;-70
2021/12/14 00:47:18;;;;;;;8.68;4.07;;;10.50;99.90;;;;;;2071810;28;20026;-70
2021/12/14 00:48:19;;;;;;;4.95;3.90;;;10.50;99.90;;;;;;2071278;28;20037;-70
2021/12/14 00:49:20;;;;;;;4.30;3.90;;;10.60;99.90;;;;;;2071010;28;20047;-70
2021/12/14 00:50:23;;;;;;;4.63;4.10;;;10.60;99.90;;;;;;2071799;28;20097;-70
2021/12/14 00:51:28;;;;;;;4.45;4.05;;;10.50;99.90;;;;;;2071758;28;20356;-70
2021/12/14 00:52:28;;;;;;;4.93;3.95;;;10.50;99.90;;;;;;2078946;28;20436;-70
2021/12/14 00:53:30;;;;;;;5.32;3.92;;;10.50;99.90;;;;;;2071215;28;20107;-70
2021/12/14 00:54:31;;;;;;;5.10;4.22;;;10.50;99.90;;;;;;2070885;28;20159;-70
2021/12/14 00:55:39;;;;;;;5.45;3.83;;;10.50;99.90;;;;;;2071773;28;20022;-70
2021/12/14 00:56:41;;;;;;;4.53;4.07;;;10.50;99.90;;;;;;2071178;28;20097;-70
2021/12/14 00:57:42;;;;;;;4.72;4.25;;;10.50;99.90;;;;;;2071770;28;20036;-70
2021/12/14 00:58:43;;;;;;;4.47;4.07;;;10.50;99.90;;;;;;2071500;28;20201;-70
2021/12/14 00:59:44;;;;;;;3.97;3.67;;;10.50;99.90;;;;;;2071313;28;20030;-70
2021/12/14 01:00:53;;;;;;;4.15;3.67;;;10.50;99.90;;;;;;2071364;28;20018;-70
2021/12/14 01:01:57;;;;;;;4.57;4.18;;;10.50;99.90;;;;;;2071511;28;20028;-70
2021/12/14 01:02:58;;;;;;;3.92;3.50;;;10.50;99.90;;;;;;2071520;28;20014;-70
2021/12/14 01:04:04;;;;;;;4.78;4.28;;;10.50;99.90;;;;;;2071663;28;20284;-70
2021/12/14 01:05:19;;;;;;;4.60;4.07;;;10.50;99.90;;;;;;2071408;28;20108;-70
2021/12/14 01:06:23;;;;;;;5.47;4.43;;;10.50;99.90;;;;;;2070929;28;20017;-70
2021/12/14 01:07:27;;;;;;;4.32;4.03;;;10.50;99.90;;;;;;2071417;28;20037;-70
2021/12/14 01:08:34;;;;;;;4.43;4.03;;;10.50;99.90;;;;;;2071398;28;20025;-70
2021/12/14 01:09:40;;;;;;;4.90;3.83;;;10.50;99.90;;;;;;2071535;28;20033;-70
2021/12/14 01:10:50;;;;;;;4.38;3.83;;;10.50;99.90;;;;;;2071400;28;20057;-70
2021/12/14 01:11:52;;;;;;;5.05;3.97;;;10.50;99.90;;;;;;2071699;28;20026;-70
2021/12/14 01:13:03;;;;;;;5.47;4.50;;;10.40;99.90;;;;;;2071281;28;20041;-70
2021/12/14 01:14:12;;;;;;;4.57;4.18;;;10.40;99.90;;;;;;2078982;28;20026;-70
2021/12/14 01:15:29;;;;;;;4.80;4.30;;;10.40;99.90;;;;;;2073563;28;20033;-70
2021/12/14 01:16:50;;;;;;;4.78;4.38;;;10.40;99.90;;;;;;2071131;28;20053;-70
2021/12/14 01:18:13;;;;;;;4.45;4.03;;;10.40;99.90;;;;;;2071696;28;20026;-70
2021/12/14 01:19:20;;;;;;;5.78;4.07;;;10.40;99.90;;;;;;2071277;28;20474;-70
2021/12/14 01:20:30;;;;;;;4.65;4.25;;;10.40;99.90;;;;;;2070800;28;20125;-70
2021/12/14 01:22:46;;;;;;;6.32;4.28;;;10.40;99.90;;;;;;2071702;28;20025;-70
2021/12/14 01:23:48;;;;;;;6.90;4.25;;;10.40;99.90;;;;;;2071737;28;20368;-70
2021/12/14 01:25:06;;;;;;;4.45;4.05;;;10.40;99.90;;;;;;2071781;28;20062;-70
2021/12/14 01:26:12;;;;;;;5.07;4.47;;;10.40;99.90;;;;;;2071504;28;20033;-70
2021/12/14 01:27:17;;;;;;;5.43;3.47;;;10.40;99.90;;;;;;2071145;28;20084;-70
2021/12/14 01:28:25;;;;;;;4.82;3.90;;;10.40;99.90;;;;;;2071512;28;20038;-70
2021/12/14 01:29:26;;;;;;;5.25;4.40;;;10.40;99.90;;;;;;2071180;28;20021;-70
2021/12/14 01:30:34;;;;;;;4.82;4.00;;;10.40;99.90;;;;;;2070567;28;20068;-70
2021/12/14 01:31:40;;;;;;;5.00;4.40;;;10.40;99.90;;;;;;2070764;28;20537;-70
2021/12/14 01:32:45;;;;;;;5.82;4.25;;;10.40;99.90;;;;;;2070691;28;20440;-70
2021/12/14 01:33:53;;;;;;;5.32;4.45;;;10.40;99.90;;;;;;2070697;28;20152;-70
2021/12/14 01:34:54;;;;;;;4.95;4.25;;;10.40;99.90;;;;;;2071369;28;20366;-70
2021/12/14 01:35:57;;;;;;;4.32;3.92;;;10.40;99.90;;;;;;2071416;28;20137;-70
2021/12/14 01:37:03;;;;;;;6.43;4.78;;;10.40;99.90;;;;;;2070939;28;20080;-70
2021/12/14 01:40:02;;;;;;;5.70;4.60;;;10.40;99.90;;;;;;2067069;28;20022;-70
2021/12/14 01:41:11;;;;;;;4.88;4.40;;;10.30;99.90;;;;;;2066611;28;20057;-70
2021/12/14 01:42:25;;;;;;;4.75;4.18;;;10.40;99.90;;;;;;2071135;28;20030;-70
2021/12/14 01:43:48;;;;;;;4.70;4.30;;;10.40;99.90;;;;;;2063546;28;20019;-70
2021/12/14 01:44:59;;;;;;;4.75;4.35;;;10.40;99.90;;;;;;2070866;28;20041;-70
2021/12/14 01:46:07;;;;;;;9.40;4.55;;;10.40;99.90;;;;;;2073534;28;20374;-70
2021/12/14 01:47:12;;;;;;;5.53;4.50;;;10.40;99.90;;;;;;2070935;28;20029;-70
2021/12/14 01:48:13;;;;;;;5.43;4.80;;;10.40;99.90;;;;;;2071044;28;20120;-70
2021/12/14 01:49:16;;;;;;;4.80;4.35;;;10.40;99.90;;;;;;2071034;28;20033;-70
2021/12/14 01:50:25;;;;;;;5.10;4.20;;;10.40;99.90;;;;;;2070949;28;20087;-70
2021/12/14 01:51:26;;;;;;;5.50;4.82;;;10.40;99.90;;;;;;2063727;28;20022;-70
2021/12/14 01:52:31;;;;;;;5.10;4.32;;;10.40;99.90;;;;;;2066748;28;20062;-70
2021/12/14 01:53:33;;;;;;;4.32;4.00;;;10.40;99.90;;;;;;2071303;28;20097;-70
2021/12/14 01:54:41;;;;;;;4.43;4.03;;;10.40;99.90;;;;;;2071305;28;20097;-70
2021/12/14 01:55:51;;;;;;;4.68;4.28;;;10.40;99.90;;;;;;2071475;28;20014;-70
2021/12/14 01:56:52;;;;;;;5.72;5.00;;;10.40;99.90;;;;;;2070824;28;20432;-70
2021/12/14 01:57:59;;;;;;;6.68;4.13;;;10.40;99.90;;;;;;2071077;28;20030;-70
2021/12/14 01:59:07;;;;;;;5.85;4.63;;;10.40;99.90;;;;;;2072142;28;20522;-70
2021/12/14 02:00:26;;;;;;;5.18;4.60;;;10.40;99.90;;;;;;2065250;28;20081;-70
2021/12/14 02:01:37;;;;;;;5.00;4.50;;;10.40;99.90;;;;;;2064811;28;20342;-70
2021/12/14 02:02:44;;;;;;;5.70;4.50;;;10.40;99.90;;;;;;2072488;28;20025;-70
2021/12/14 02:03:51;;;;;;;5.28;4.78;;;10.40;99.90;;;;;;2072974;28;20020;-70
2021/12/14 02:04:53;;;;;;;6.25;4.80;;;10.50;99.90;;;;;;2072768;28;20029;-70
2021/12/14 02:05:54;;;;;;;5.20;4.70;;;10.40;99.90;;;;;;2072992;28;20021;-70
2021/12/14 02:06:58;;;;;;;5.25;4.75;;;10.40;99.90;;;;;;2072491;28;20462;-70
2021/12/14 02:08:01;;;;;;;4.65;4.25;;;10.40;99.90;;;;;;2073152;28;20108;-70
2021/12/14 02:09:10;;;;;;;5.45;4.70;;;10.40;99.90;;;;;;2072139;28;20026;-70
2021/12/14 02:10:20;;;;;;;6.25;4.50;;;10.40;99.90;;;;;;2070662;28;20444;-70
2021/12/14 02:11:21;;;;;;;6.30;4.25;;;10.40;99.90;;;;;;2072821;28;20441;-70
2021/12/14 02:12:27;;;;;;;5.10;4.60;;;10.40;99.90;;;;;;2071940;28;20125;-70
2021/12/14 02:13:45;;;;;;;5.10;4.57;;;10.40;99.90;;;;;;2071868;28;20490;-70
2021/12/14 02:14:47;;;;;;;6.47;5.03;;;10.40;99.90;;;;;;2073278;28;20113;-70
2021/12/14 02:15:48;;;;;;;5.85;4.80;;;10.40;99.90;;;;;;2072846;28;20065;-70
2021/12/14 02:16:55;;;;;;;7.03;5.28;;;10.40;99.90;;;;;;2072271;28;20026;-70
2021/12/14 02:17:59;;;;;;;5.97;4.20;;;10.40;99.90;;;;;;2067779;28;20027;-70
2021/12/14 02:19:14;;;;;;;4.78;4.30;;;10.40;99.90;;;;;;2079337;28;20020;-70
2021/12/14 02:20:20;;;;;;;5.70;4.88;;;10.40;99.90;;;;;;2075547;28;20026;-70
2021/12/14 02:21:21;;;;;;;7.30;4.90;;;10.40;99.90;;;;;;2079041;28;20461;-70
2021/12/14 02:22:22;;;;;;;5.03;4.53;;;10.40;99.90;;;;;;2073179;28;20117;-70
2021/12/14 02:23:23;;;;;;;4.97;4.53;;;10.40;99.90;;;;;;2075893;28;20037;-70
2021/12/14 02:24:26;;;;;;;5.03;4.50;;;10.40;99.90;;;;;;2072748;28;20065;-70
2021/12/14 02:25:27;;;;;;;5.55;5.05;;;10.40;99.90;;;;;;2073060;28;20036;-70
2021/12/14 02:26:32;;;;;;;7.47;5.03;;;10.40;99.90;;;;;;2071775;28;20026;-70
2021/12/14 02:27:39;;;;;;;8.32;5.00;;;10.40;99.90;;;;;;2067749;28;20029;-70
2021/12/14 02:28:39;;;;;;;4.97;4.50;;;10.40;99.90;;;;;;2072077;28;20025;-70
2021/12/14 02:29:47;;;;;;;5.30;4.80;;;10.40;99.90;;;;;;2072316;28;20026;-70
2021/12/14 02:30:50;;;;;;;5.28;4.55;;;10.40;99.90;;;;;;2072845;28;20375;-70
2021/12/14 02:31:52;;;;;;;5.28;4.78;;;10.40;99.90;;;;;;2072386;28;20386;-70
2021/12/14 02:32:58;;;;;;;5.75;4.85;;;10.40;99.90;;;;;;2071813;28;20032;-70
2021/12/14 02:34:04;;;;;;;5.97;5.38;;;10.40;99.90;;;;;;2071921;28;20076;-71
2021/12/14 02:35:09;;;;;;;8.05;5.00;;;10.40;99.90;;;;;;2072740;28;20368;-71
2021/12/14 02:36:12;;;;;;;5.30;4.80;;;10.40;99.90;;;;;;2072267;28;20022;-70
2021/12/14 02:37:15;;;;;;;4.85;4.35;;;10.40;99.90;;;;;;2071410;28;20022;-70
2021/12/14 02:38:17;;;;;;;5.43;4.93;;;10.40;99.90;;;;;;2068801;28;20025;-70
2021/12/14 02:40:13;;;;;;;5.85;4.97;;;10.40;99.90;;;;;;2070920;28;20266;-70
2021/12/14 02:41:11;;;;;;;5.13;4.63;;;10.40;99.90;;;;;;2072031;28;20109;-70
2021/12/14 02:42:18;;;;;;;5.93;5.30;;;10.40;99.90;;;;;;2065946;28;20042;-70
2021/12/14 02:43:23;;;;;;;5.90;5.28;;;10.40;99.90;;;;;;2064899;28;20022;-70
2021/12/14 02:44:24;;;;;;;5.47;4.93;;;10.40;99.90;;;;;;2069036;28;20026;-70
2021/12/14 02:45:25;;;;;;;6.07;4.93;;;10.40;99.90;;;;;;2072681;28;20030;-70
2021/12/14 02:46:31;;;;;;;4.53;4.13;;;10.40;99.90;;;;;;2071927;28;20037;-70
2021/12/14 02:47:32;;;;;;;5.45;4.95;;;10.40;99.90;;;;;;2071833;28;20025;-71
2021/12/14 02:48:33;;;;;;;7.00;4.93;;;10.40;99.90;;;;;;2071833;28;20022;-70
2021/12/14 02:49:35;;;;;;;6.00;5.07;;;10.30;99.90;;;;;;2072842;28;20060;-70
2021/12/14 02:50:37;;;;;;;6.22;5.40;;;10.40;99.90;;;;;;2072611;28;20029;-70
2021/12/14 02:51:42;;;;;;;6.10;5.45;;;10.30;99.90;;;;;;2072547;28;20033;-70
2021/12/14 02:52:42;;;;;;;7.13;5.45;;;10.30;99.90;;;;;;2072524;28;20538;-70
2021/12/14 02:53:45;;;;;;;5.75;5.20;;;10.30;99.90;;;;;;2072622;28;20496;-70
2021/12/14 02:54:54;;;;;;;5.82;5.10;;;10.30;99.90;;;;;;2071978;28;20120;-70
2021/12/14 02:55:55;;;;;;;7.22;5.68;;;10.30;99.90;;;;;;2072019;28;20030;-71
2021/12/14 02:57:15;;;;;;;5.60;5.10;;;10.30;99.90;;;;;;2072081;28;20022;-70
2021/12/14 02:58:16;;;;;;;5.88;4.78;;;10.30;99.90;;;;;;2072147;28;20026;-70
2021/12/14 02:59:21;;;;;;;6.07;5.45;;;10.30;99.90;;;;;;2072528;28;20080;-70
2021/12/14 03:00:30;;;;;;;5.75;5.15;;;10.30;99.90;;;;;;2072169;28;20033;-70
2021/12/14 03:01:31;;;;;;;5.50;5.00;;;10.30;99.90;;;;;;2073904;28;20067;-70
2021/12/14 03:02:34;;;;;;;7.05;5.68;;;10.30;99.90;;;;;;2073467;28;20072;-70
2021/12/14 03:03:35;;;;;;;5.32;4.82;;;10.30;99.90;;;;;;2073817;28;20037;-70
2021/12/14 03:04:42;;;;;;;5.68;5.10;;;10.30;99.90;;;;;;2073714;28;20383;-70
2021/12/14 03:05:45;;;;;;;7.03;5.03;;;10.30;99.90;;;;;;2073638;28;20084;-70
2021/12/14 03:06:50;;;;;;;6.13;5.53;;;10.30;99.90;;;;;;2073042;28;20026;-70
2021/12/14 03:08:00;;;;;;;6.25;5.65;;;10.30;99.90;;;;;;2073387;28;20028;-70
2021/12/14 03:09:15;;;;;;;8.68;6.00;;;10.30;99.90;;;;;;2074324;28;20029;-70
2021/12/14 03:10:33;;;;;;;7.05;5.50;;;10.30;99.90;;;;;;2069082;28;20022;-70
2021/12/14 03:11:36;;;;;;;7.22;5.07;;;10.30;99.90;;;;;;2073463;28;20018;-70
2021/12/14 03:12:41;;;;;;;6.43;5.25;;;10.30;99.90;;;;;;2073685;28;20030;-70
2021/12/14 03:13:47;;;;;;;6.70;5.88;;;10.20;99.90;;;;;;2073290;28;20026;-70
2021/12/14 03:14:54;;;;;;;6.45;5.55;;;10.30;99.90;;;;;;2073688;28;20545;-70
2021/12/14 03:15:58;;;;;;;6.22;5.20;;;10.30;99.90;;;;;;2073872;28;20026;-70
2021/12/14 03:17:00;;;;;;;6.85;5.30;;;10.30;99.90;;;;;;2073203;28;20018;-70
2021/12/14 03:18:07;;;;;;;8.93;5.60;;;10.30;99.90;;;;;;2073444;28;20026;-70
2021/12/14 03:19:08;;;;;;;6.57;5.82;;;10.30;99.90;;;;;;2073619;28;20378;-70
2021/12/14 03:20:20;;;;;;;6.82;6.10;;;10.30;99.90;;;;;;2073795;28;20022;-70
2021/12/14 03:21:32;;;;;;;7.85;6.05;;;10.20;99.90;;;;;;2072907;28;20076;-70
2021/12/14 03:22:39;;;;;;;8.20;6.15;;;10.20;99.90;;;;;;2073846;28;20486;-70
2021/12/14 03:23:53;;;;;;;6.38;5.70;;;10.20;99.90;;;;;;2073343;28;20022;-70
2021/12/14 03:24:55;;;;;;;8.02;6.47;;;10.20;99.90;;;;;;2069848;28;20443;-70
2021/12/14 03:26:02;;;;;;;9.45;6.28;;;10.20;99.90;;;;;;2073499;28;20026;-70
2021/12/14 03:27:03;;;;;;;8.80;5.85;;;10.20;99.90;;;;;;2073145;28;20044;-70
2021/12/14 03:28:05;;;;;;;7.00;6.32;;;10.20;99.90;;;;;;2073560;28;20052;-70
2021/12/14 03:29:17;;;;;;;10.80;7.05;;;10.20;99.90;;;;;;2073650;28;20022;-71
2021/12/14 03:30:27;;;;;;;6.75;6.05;;;10.20;99.90;;;;;;2065442;28;20022;-70
2021/12/14 03:31:31;;;;;;;6.57;5.95;;;10.20;99.90;;;;;;2070348;28;20037;-70
2021/12/14 03:32:34;;;;;;;7.82;6.25;;;10.10;99.90;;;;;;2073582;28;20386;-70
2021/12/14 03:33:42;;;;;;;6.32;5.80;;;10.10;99.90;;;;;;2073341;28;20025;-70
2021/12/14 03:34:43;;;;;;;6.80;6.20;;;10.10;99.90;;;;;;2073581;28;20010;-70
2021/12/14 03:35:59;;;;;;;7.43;6.35;;;10.10;99.90;;;;;;2073592;28;20101;-70
2021/12/14 03:37:09;;;;;;;6.75;5.82;;;10.10;99.90;;;;;;2065042;28;20018;-70
2021/12/14 03:38:22;;;;;;;7.75;6.80;;;10.10;99.90;;;;;;2071909;28;20026;-70
2021/12/14 03:39:25;;;;;;;7.13;6.43;;;10.10;99.90;;;;;;2073688;28;20022;-70
2021/12/14 03:40:25;;;;;;;9.07;7.03;;;10.10;99.90;;;;;;2073503;28;20431;-70
2021/12/14 03:41:33;;;;;;;7.70;6.43;;;10.10;99.90;;;;;;2073444;28;20041;-70
2021/12/14 03:42:39;;;;;;;7.97;6.65;;;10.10;99.90;;;;;;2073605;28;20053;-70
2021/12/14 03:43:43;;;;;;;9.88;8.13;;;10.10;99.90;;;;;;2073392;28;20022;-70
2021/12/14 03:44:49;;;;;;;8.48;7.57;;;10.10;99.90;;;;;;2073393;28;20028;-70
2021/12/14 03:45:51;;;;;;;13.35;7.75;;;10.10;99.90;;;;;;2073607;28;20482;-70
2021/12/14 03:47:01;;;;;;;11.43;7.78;;;10.10;99.90;;;;;;2072837;28;20069;-70
2021/12/14 03:48:03;;;;;;;10.82;8.05;;;10.10;99.90;;;;;;2073643;28;20080;-70
2021/12/14 03:49:06;;;;;;;10.93;7.35;;;10.20;99.90;;;;;;2072630;28;20034;-70
2021/12/14 03:50:09;;;;;;;9.88;7.28;;;10.20;99.90;;;;;;2073641;28;20033;-70
2021/12/14 03:51:10;;;;;;;9.35;7.88;;;10.20;99.90;;;;;;2073161;28;20390;-70
2021/12/14 03:52:15;;;;;;;11.88;6.90;;;10.10;99.90;;;;;;2073227;28;20029;-70
2021/12/14 03:53:19;;;;;;;8.32;7.00;;;10.20;99.90;;;;;;2073075;28;20029;-71
2021/12/14 03:54:21;;;;;;;7.90;7.18;;;10.10;99.90;;;;;;2073391;28;20045;-71
2021/12/14 03:55:32;;;;;;;8.27;7.20;;;10.20;99.90;;;;;;2073172;28;20049;-70
2021/12/14 03:56:33;;;;;;;9.68;6.88;;;10.10;99.90;;;;;;2073027;28;20018;-70
2021/12/14 03:57:33;;;;;;;9.57;6.90;;;10.10;99.90;;;;;;2073329;28;20022;-70
2021/12/14 03:58:37;;;;;;;10.60;7.25;;;10.10;99.90;;;;;;2073135;28;20022;-70
2021/12/14 03:59:39;;;;;;;8.45;6.82;;;10.10;99.90;;;;;;2073453;28;20382;-70
2021/12/14 04:00:51;;;;;;;9.57;6.88;;;10.20;99.90;;;;;;2073161;28;20028;-70
2021/12/14 04:01:52;;;;;;;11.32;7.38;;;10.10;99.90;;;;;;2072762;28;20026;-70
2021/12/14 04:02:55;;;;;;;9.40;7.10;;;10.10;99.90;;;;;;2071943;28;20470;-70
2021/12/14 04:04:01;;;;;;;8.93;7.15;;;10.10;99.90;;;;;;2072390;28;20155;-70
2021/12/14 04:05:10;;;;;;;8.95;7.53;;;10.10;99.90;;;;;;2072367;28;20395;-70
2021/12/14 04:06:12;;;;;;;10.82;7.43;;;10.10;99.90;;;;;;2072640;28;20037;-70
2021/12/14 04:07:15;;;;;;;7.68;6.88;;;10.10;99.90;;;;;;2071531;28;20026;-70
2021/12/14 04:08:18;;;;;;;9.48;6.50;;;10.20;99.90;;;;;;2072051;28;20026;-70
2021/12/14 04:09:21;;;;;;;11.10;7.38;;;10.10;99.90;;;;;;2070887;28;20470;-70
2021/12/14 04:10:29;;;;;;;10.05;7.50;;;10.10;99.90;;;;;;2069786;28;20030;-70
2021/12/14 04:11:32;;;;;;;10.77;7.95;;;10.10;99.90;;;;;;2071846;28;20401;-70
2021/12/14 04:12:33;;;;;;;9.45;7.25;;;10.10;99.90;;;;;;2071838;28;20759;-70
2021/12/14 04:13:38;;;;;;;9.90;7.72;;;10.20;99.90;;;;;;2079182;28;20474;-70
2021/12/14 04:14:41;;;;;;;12.82;7.35;;;10.20;99.90;;;;;;2078533;28;20109;-71
2021/12/14 04:15:42;;;;;;;13.05;7.90;;;10.20;99.90;;;;;;2063849;28;20026;-70
2021/12/14 04:16:48;;;;;;;10.60;8.02;;;10.20;99.90;;;;;;2071362;28;20022;-70
2021/12/14 04:17:49;;;;;;;8.38;7.55;;;10.20;99.90;;;;;;2071985;28;20026;-70
2021/12/14 04:18:50;;;;;;;8.02;7.22;;;10.20;99.90;;;;;;2072113;28;20030;-70
2021/12/14 04:19:51;;;;;;;10.35;7.50;;;10.20;99.90;;;;;;2071819;28;20125;-70
2021/12/14 04:20:55;;;;;;;9.02;7.65;;;10.20;99.90;;;;;;2071752;28;20033;-71
2021/12/14 04:22:00;;;;;;;9.10;7.30;;;10.20;99.90;;;;;;2071014;28;20083;-70
2021/12/14 04:23:07;;;;;;;10.02;7.75;;;10.20;99.90;;;;;;2071682;28;20060;-70
2021/12/14 04:24:09;;;;;;;10.85;7.63;;;10.20;99.90;;;;;;2071939;28;20080;-71
2021/12/14 04:25:10;;;;;;;12.23;7.80;;;10.20;99.90;;;;;;2071858;28;20048;-70
2021/12/14 04:26:13;;;;;;;11.07;8.10;;;10.20;99.90;;;;;;2071681;28;20547;-70
2021/12/14 04:27:19;;;;;;;9.55;7.80;;;10.20;99.90;;;;;;2071374;28;20113;-70
2021/12/14 04:28:27;;;;;;;10.32;8.10;;;10.30;99.90;;;;;;2071653;28;20091;-70
2021/12/14 04:29:28;;;;;;;9.25;7.70;;;10.20;99.90;;;;;;2072060;28;20593;-70
2021/12/14 04:30:29;;;;;;;11.23;9.05;;;10.20;99.90;;;;;;2071628;28;20104;-70
2021/12/14 04:31:34;;;;;;;10.38;8.07;;;10.20;99.90;;;;;;2071536;28;20418;-70
2021/12/14 04:32:36;;;;;;;12.73;8.10;;;10.20;99.90;;;;;;2071936;28;20072;-70
2021/12/14 04:33:41;;;;;;;10.52;7.90;;;10.30;99.90;;;;;;2071690;28;20022;-70
2021/12/14 04:34:42;;;;;;;10.10;8.25;;;10.20;99.90;;;;;;2071676;28;20417;-70
2021/12/14 04:35:46;;;;;;;10.88;8.98;;;10.30;99.90;;;;;;2071970;28;20516;-70
2021/12/14 04:36:54;;;;;;;12.02;9.05;;;10.20;99.90;;;;;;2071185;28;20100;-70
2021/12/14 04:37:58;;;;;;;9.20;8.13;;;10.30;99.90;;;;;;2071976;28;20018;-70
2021/12/14 04:39:29;;;;;;;9.63;8.25;;;10.20;99.90;;;;;;2078861;28;20494;-70
2021/12/14 04:52:31;;;;;;;15.88;12.20;;;10.10;99.90;;;;;;2071807;28;20030;-71
2021/12/14 04:53:46;;;;;;;15.00;11.38;;;10.10;99.90;;;;;;2071517;28;20088;-71
2021/12/14 04:54:54;;;;;;;15.52;12.43;;;10.00;99.90;;;;;;2071843;28;20108;-71
2021/12/14 04:55:59;;;;;;;16.65;12.52;;;10.00;99.90;;;;;;2070946;28;20527;-71
2021/12/14 04:57:00;;;;;;;14.57;11.48;;;10.10;99.90;;;;;;2071079;28;20022;-71
2021/12/14 04:58:01;;;;;;;15.35;12.07;;;10.00;99.90;;;;;;2071870;28;20022;-71
2021/12/14 04:59:11;;;;;;;13.52;11.70;;;10.00;99.90;;;;;;2071674;28;20589;-72
2021/12/14 05:00:24;;;;;;;;;;;10.10;99.90;;;;;;2072211;28;20033;-71
2021/12/14 05:01:24;;;;;;;16.20;11.85;;;10.00;99.90;;;;;;2063579;28;19910;-71
2021/12/14 05:02:32;;;;;;;16.42;11.70;;;10.00;99.90;;;;;;2069278;28;20018;-71
2021/12/14 05:03:42;;;;;;;16.63;12.30;;;10.00;99.90;;;;;;2071450;28;20172;-71
2021/12/14 05:04:43;;;;;;;14.82;11.95;;;10.00;99.90;;;;;;2071770;28;20010;-71
2021/12/14 05:05:50;;;;;;;15.30;12.55;;;10.00;99.90;;;;;;2071629;28;20110;-71
2021/12/14 05:07:03;;;;;;;13.68;10.70;;;10.10;99.90;;;;;;2071003;28;20028;-71
2021/12/14 05:09:23;;;;;;;20.70;13.93;;;10.10;99.90;;;;;;2071346;28;20018;-71
2021/12/14 05:10:23;;;;;;;15.10;12.52;;;10.10;99.90;;;;;;2069274;28;20113;-71
2021/12/14 05:11:25;;;;;;;17.23;13.00;;;10.10;99.90;;;;;;2071727;28;20034;-71
2021/12/14 05:12:29;;;;;;;19.50;14.23;;;10.10;99.90;;;;;;2071134;28;20474;-71
2021/12/14 05:13:39;;;;;;;17.45;12.77;;;10.10;99.90;;;;;;2071383;28;20029;-71
2021/12/14 05:14:43;;;;;;;16.33;12.18;;;10.10;99.90;;;;;;2071558;28;20032;-71
2021/12/14 05:15:43;;;;;;;14.02;12.27;;;10.10;99.90;;;;;;2063328;28;20137;-71
2021/12/14 05:16:45;;;;;;;14.80;12.50;;;10.10;99.90;;;;;;2066509;28;20148;-71
2021/12/14 05:17:46;;;;;;;19.17;13.60;;;10.10;99.90;;;;;;2071646;28;20473;-71
2021/12/14 05:18:54;;;;;;;13.98;12.48;;;10.10;99.90;;;;;;2071579;28;20036;-71
2021/12/14 05:19:56;;;;;;;15.75;13.25;;;10.00;99.90;;;;;;2071151;28;20057;-71
2021/12/14 05:20:58;;;;;;;18.55;14.02;;;10.10;99.90;;;;;;2071632;28;20046;-71
2021/12/14 05:22:05;;;;;;;16.48;13.40;;;10.10;99.90;;;;;;2071644;28;20014;-71
2021/12/14 05:23:06;;;;;;;17.85;13.88;;;10.10;99.90;;;;;;2071687;28;20026;-71
2021/12/14 05:24:09;;;;;;;19.85;14.48;;;10.10;99.90;;;;;;2071474;28;20109;-71
2021/12/14 05:25:18;;;;;;;19.55;14.45;;;10.10;99.90;;;;;;2071851;28;20030;-71
2021/12/14 05:26:19;;;;;;;19.63;14.98;;;10.10;99.90;;;;;;2071311;28;20473;-71
2021/12/14 05:27:39;;;;;;;20.23;15.73;;;10.10;99.90;;;;;;2063069;28;20364;-71
2021/12/14 05:28:42;;;;;;;20.35;14.52;;;10.10;99.90;;;;;;2071310;28;20056;-71
2021/12/14 05:29:44;;;;;;;20.65;15.52;;;10.10;99.90;;;;;;2071607;28;20022;-71
2021/12/14 05:30:47;;;;;;;22.17;17.73;;;10.00;99.90;;;;;;2071473;28;20057;-71
2021/12/14 05:31:50;;;;;;;23.60;16.67;;;10.00;99.90;;;;;;2071392;28;20104;-71
2021/12/14 05:33:08;;;;;;;21.00;15.65;;;10.00;99.90;;;;;;2071058;28;20034;-71
2021/12/14 05:34:08;;;;;;;24.83;17.48;;;10.00;99.90;;;;;;2071349;28;20112;-71
2021/12/14 05:35:11;;;;;;;23.83;18.27;;;10.10;99.90;;;;;;2071414;28;20026;-71
2021/12/14 05:36:15;;;;;;;21.88;17.20;;;10.00;99.90;;;;;;2071196;28;20033;-71
2021/12/14 05:37:24;;;;;;;22.33;18.45;;;10.10;99.90;;;;;;2071008;28;20024;-71
2021/12/14 05:38:43;;;;;;;20.15;17.35;;;10.10;99.90;;;;;;2063649;28;20467;-71
2021/12/14 05:39:53;;;;;;;22.73;18.90;;;10.00;99.90;;;;;;2069360;28;20026;-71
2021/12/14 05:43:10;;;;;;;24.45;19.30;;;10.10;99.90;;;;;;2071319;28;20022;-71
2021/12/14 05:44:20;;;;;;;26.00;19.55;;;10.00;99.90;;;;;;2071343;28;20557;-71
2021/12/14 05:45:22;;;;;;;21.83;18.65;;;10.10;99.90;;;;;;2071413;28;20041;-71
2021/12/14 05:46:24;;;;;;;27.55;20.23;;;10.00;99.90;;;;;;2070700;28;20032;-71
2021/12/14 05:47:24;;;;;;;25.00;20.00;;;10.00;99.90;;;;;;2070208;28;20466;-71
2021/12/14 05:48:31;;;;;;;24.33;20.10;;;10.00;99.90;;;;;;2070904;28;20018;-71
2021/12/14 05:49:32;;;;;;;25.38;20.23;;;10.00;99.90;;;;;;2071276;28;20025;-71
2021/12/14 05:50:39;;;;;;;22.77;18.83;;;10.10;99.90;;;;;;2071383;28;20029;-71
2021/12/14 05:51:40;;;;;;;21.42;18.45;;;10.10;99.90;;;;;;2071762;28;20030;-71
2021/12/14 05:52:40;;;;;;;27.52;20.98;;;10.10;99.90;;;;;;2071168;28;20033;-71
2021/12/14 05:53:44;;;;;;;25.13;20.80;;;10.10;99.90;;;;;;2071192;28;20061;-71
2021/12/14 05:54:46;;;;;;;25.38;20.60;;;10.10;99.90;;;;;;2070387;28;20506;-71
2021/12/14 05:55:48;;;;;;;24.80;19.52;;;10.10;99.90;;;;;;2070651;28;20026;-71
2021/12/14 05:56:49;;;;;;;23.65;20.20;;;10.10;99.90;;;;;;2070400;28;20026;-71
2021/12/14 05:57:50;;;;;;;24.67;20.50;;;10.10;99.90;;;;;;2070714;28;20092;-71
2021/12/14 05:58:53;;;;;;;24.73;20.80;;;10.10;99.90;;;;;;2071319;28;20640;-71
2021/12/14 05:59:54;;;;;;;25.23;20.67;;;10.10;99.90;;;;;;2071441;28;20022;-71
2021/12/14 06:01:03;;;;;;;25.75;20.23;;;10.10;99.90;;;;;;2071260;28;20026;-71